Billington, Texas
Current Conditions -  °F | °C
As of 10:51 PM on Friday 31 Oct 2014 (Local Time) from KACT Reporting Station
Clear Clear  
Wind Chill: 47°   Ceiling: Unl
Heat Index: 49°   Visibility: 10mi
Dew Point: 39°   Wind: 6mph
Humidity: 69%   Direction: 360°N
Pressure: 30.34"   Gusts: NA
Location:  31.656°N, 96.98°W
Report Text: KACT 010351Z 36005KT 10SM CLR 09/04 A3034 RMK AO2 SLP273 T00940039
Loading
Personal Weather Stations






























Interactive Weather Map
Tropical Storm Tracking
New forecast layout! Learn more

10-Day Weather Forecast

Advertisements
Track Severe Weather on mobile